ADDS METAR Data INFO
IDs: Format: Raw Decoded Include TAF

Data at: 2054 UTC 26 May 2017

KDUX 262035Z AUTO 11003KT 10SM CLR 26/09 A2991 RMK AO2 T02630086
KDUX 262015Z AUTO 12005KT 10SM CLR 26/09 A2992 RMK AO2 T02570092
KDUX 261955Z AUTO 16006KT 10SM CLR 26/10 A2992 RMK AO2 T02610099
KDUX 261935Z AUTO 15004KT 10SM CLR 26/09 A2993 RMK AO2 T02560087
KDUX 261915Z AUTO 13005KT 10SM CLR 25/10 A2993 RMK AO2 T02530095
KDUX 261855Z AUTO 16004KT 10SM CLR 25/09 A2994 RMK AO2 T02500088
KDUX 261815Z AUTO 09007KT 10SM CLR 25/09 A2995 RMK AO2 T02450088
KDUX 261755Z AUTO 05008KT 10SM CLR 24/10 A2995 RMK AO2 T02440095 10244 20119
KDUX 261735Z AUTO 06005G14KT 10SM CLR 24/09 A2995 RMK AO2 T02360089
KDUX 261715Z AUTO 05007KT 10SM CLR 23/09 A2995 RMK AO2 T02300092
KDUX 261655Z AUTO 03004KT 10SM CLR 22/09 A2995 RMK AO2 T02230093
KDUX 261635Z AUTO 02010KT 10SM CLR 22/10 A2994 RMK AO2 T02240100
KDUX 261615Z AUTO 02009KT 10SM CLR 21/10 A2995 RMK AO2 T02140099
KDUX 261555Z AUTO 01009G18KT 10SM CLR 21/10 A2994 RMK AO2 T02110097
KDUX 261535Z AUTO 01012G18KT 10SM CLR 21/10 A2994 RMK AO2 T02050095
KDUX 261515Z AUTO 36012G19KT 10SM CLR 20/10 A2994 RMK AO2 T01990096
KDUX 261455Z AUTO 01012KT 10SM CLR 19/10 A2993 RMK AO2 T01940095
KDUX 261435Z AUTO 36016G19KT 10SM CLR 19/10 A2993 RMK AO2 T01860095
KDUX 261415Z AUTO 36014G18KT 10SM CLR 18/10 A2993 RMK AO2 T01810095
KDUX 261355Z AUTO 36013G25KT 10SM CLR 17/10 A2992 RMK AO2 T01710096
KDUX 261335Z AUTO 36016G22KT 10SM CLR 16/09 A2992 RMK AO2 T01610093
KDUX 261315Z AUTO 35016G21KT 10SM CLR 15/09 A2991 RMK AO2 T01510094
KDUX 261255Z AUTO 35014G19KT 10SM CLR 14/09 A2991 RMK AO2 T01400092
KDUX 261235Z AUTO 34015KT 10SM CLR 13/09 A2990 RMK AO2 T01300092
KDUX 261215Z AUTO 34013KT 10SM CLR 12/09 A2989 RMK AO2 T01230091
KDUX 261155Z AUTO 34014KT 10SM CLR 12/09 A2987 RMK AO2 T01180091 10184 20116
KDUX 261135Z AUTO 34015KT 10SM CLR 12/09 A2986 RMK AO2 T01170093
KDUX 261115Z AUTO 34015KT 10SM CLR 12/10 A2985 RMK AO2 T01170095
KDUX 261055Z AUTO 34012KT 10SM CLR 12/10 A2984 RMK AO2 T01170096
KDUX 261035Z AUTO 34013KT 10SM CLR 12/10 A2983 RMK AO2 T01180096
KDUX 261015Z AUTO 34011KT 10SM CLR 12/10 A2982 RMK AO2 T01210096
KDUX 260955Z AUTO 34011KT 10SM CLR 12/10 A2982 RMK AO2 T01210096
KDUX 260935Z AUTO 33010KT 10SM CLR 12/10 A2982 RMK AO2 T01210096
KDUX 260915Z AUTO 33009KT 10SM CLR 12/10 A2981 RMK AO2 T01210095
KDUX 260855Z AUTO 33009KT 10SM CLR 12/09 A2979 RMK AO2 T01210092
KDUX 260835Z AUTO 32011KT 10SM CLR 12/09 A2977 RMK AO2 T01190089
KDUX 260815Z AUTO 32009KT 10SM CLR 12/09 A2975 RMK AO2 T01200087
KDUX 260755Z AUTO 32009KT 10SM CLR 12/09 A2974 RMK AO2 T01200087
KDUX 260735Z AUTO 32009KT 10SM CLR 12/09 A2973 RMK AO2 T01230086
KDUX 260715Z AUTO 32011KT 10SM CLR 14/09 A2973 RMK AO2 T01360091
KDUX 260655Z AUTO 33010KT 10SM CLR 14/09 A2972 RMK AO2 T01390089
KDUX 260635Z AUTO 33010KT 10SM CLR 14/07 A2972 RMK AO2 T01390067
KDUX 260615Z AUTO 32010KT 10SM CLR 16/04 A2971 RMK AO2 T01570038
KDUX 260555Z AUTO 31018G27KT 10SM CLR 19/00 A2969 RMK AO2 T01850004 10296 20164 403250087
KDUX 260535Z AUTO 24011KT 10SM CLR 17/02 A2966 RMK AO2 T01700020
KDUX 260515Z AUTO 24011KT 10SM CLR 18/01 A2966 RMK AO2 T01810013
KDUX 260455Z AUTO 24011KT 10SM CLR 17/02 A2966 RMK AO2 T01660020
KDUX 260435Z AUTO 23011KT 10SM CLR 19/01 A2965 RMK AO2 T01900008
KDUX 260415Z AUTO 23010KT 10SM CLR 19/01 A2964 RMK AO2 T01920009
KDUX 260355Z AUTO 23011KT 10SM CLR 21/00 A2963 RMK AO2 T02070003
KDUX 260335Z AUTO 22012KT 10SM CLR 21/00 A2962 RMK AO2 T02110002
KDUX 260315Z AUTO 22012KT 10SM CLR 21/01 A2961 RMK AO2 T02100009
KDUX 260255Z AUTO 22010KT 10SM CLR 22/00 A2960 RMK AO2 T02210002
KDUX 260235Z AUTO 22010KT 10SM CLR 22/01 A2959 RMK AO2 T02240006
KDUX 260215Z AUTO 22009KT 10SM CLR 22/02 A2959 RMK AO2 T02190019
KDUX 260155Z AUTO 22009KT 10SM CLR 24/01 A2958 RMK AO2 T02390010
KDUX 260135Z AUTO 23011KT 10SM CLR 27/M01 A2958 RMK AO2 T02731012
KDUX 260115Z AUTO 24015KT 10SM CLR 28/00 A2958 RMK AO2 T02761001
KDUX 260055Z AUTO 24013KT 10SM CLR 28/01 A2957 RMK AO2 T02800005
KDUX 260035Z AUTO 24012G19KT 10SM CLR 29/01 A2957 RMK AO2 T02890007
KDUX 260015Z AUTO 25015KT 10SM CLR 29/01 A2957 RMK AO2 T02920009
KDUX 252355Z AUTO 25013KT 10SM CLR 29/00 A2957 RMK AO2 T02920003 10325 20292
KDUX 252335Z AUTO 25015G26KT 10SM CLR 31/00 A2957 RMK AO2 T03050000
KDUX 252315Z AUTO 24017G22KT 10SM CLR 31/00 A2957 RMK AO2 T03111003
KDUX 252255Z AUTO 24015G22KT 10SM CLR 31/M01 A2957 RMK AO2 T03121009
KDUX 252235Z AUTO 23019G27KT 10SM CLR 31/00 A2957 RMK AO2 T03111001
KDUX 252215Z AUTO 24018G23KT 10SM CLR 32/00 A2957 RMK AO2 T03151002
KDUX 252155Z AUTO 22019G28KT 10SM CLR 33/00 A2957 RMK AO2 T03250002
KDUX 252135Z AUTO 23018G25KT 10SM CLR 32/M01 A2958 RMK AO2 T03211009
KDUX 252115Z AUTO 24020G23KT 10SM CLR 32/00 A2958 RMK AO2 T03200000
KDUX 252055Z AUTO 24016KT 10SM CLR 32/02 A2959 RMK AO2 T03210021
KDUX 252035Z AUTO 24017G23KT 10SM CLR 32/02 A2959 RMK AO2 T03200017
KDUX 252015Z AUTO 23016G22KT 10SM CLR 32/01 A2960 RMK AO2 T03190013
KDUX 251955Z AUTO 24017G22KT 10SM CLR 32/01 A2960 RMK AO2 T03180014
KDUX 251935Z AUTO 25015G24KT 10SM CLR 32/03 A2960 RMK AO2 T03220030
KDUX 251915Z AUTO 24016G22KT 10SM CLR 32/04 A2960 RMK AO2 T03200036
KDUX 251855Z AUTO 26017G22KT 10SM CLR 32/03 A2962 RMK AO2 T03220031
KDUX 251835Z AUTO 24017G23KT 10SM CLR 32/04 A2962 RMK AO2 T03200035
KDUX 251815Z AUTO 25015G21KT 10SM CLR 31/04 A2962 RMK AO2 T03120040
KDUX 251755Z AUTO 24016G23KT 10SM CLR 31/05 A2962 RMK AO2 T03130053 10313 20125
KDUX 251735Z AUTO 24014G19KT 10SM CLR 30/08 A2963 RMK AO2 T02960075
KDUX 251715Z AUTO 23014G18KT 10SM CLR 29/08 A2963 RMK AO2 T02850075
KDUX 251655Z AUTO 24013KT 10SM CLR 27/06 A2964 RMK AO2 T02700064
KDUX 251635Z AUTO 24015G20KT 10SM CLR 27/06 A2964 RMK AO2 T02690060
KDUX 251615Z AUTO 27013G20KT 10SM CLR 27/05 A2963 RMK AO2 T02670045
KDUX 251555Z AUTO 26015G20KT 10SM CLR 26/05 A2963 RMK AO2 T02610054
KDUX 251535Z AUTO 27007KT 10SM CLR 25/07 A2962 RMK AO2 T02510066
KDUX 251515Z AUTO 25017G24KT 10SM CLR 26/06 A2963 RMK AO2 T02560055
KDUX 251455Z AUTO 25013G17KT 10SM CLR 25/06 A2962 RMK AO2 T02480060
KDUX 251435Z AUTO 26017KT 10SM CLR 24/06 A2962 RMK AO2 T02410055
KDUX 251415Z AUTO 27014G19KT 10SM CLR 23/05 A2962 RMK AO2 T02310051
KDUX 251355Z AUTO 25015G18KT 10SM CLR 21/06 A2960 RMK AO2 T02080060
KDUX 251335Z AUTO 24012KT 10SM CLR 19/06 A2960 RMK AO2 T01900061
KDUX 251315Z AUTO 24010KT 10SM CLR 17/06 A2960 RMK AO2 T01710060
KDUX 251255Z AUTO 25010KT 10SM CLR 16/06 A2960 RMK AO2 T01580059
KDUX 251235Z AUTO 25008KT 10SM CLR 14/05 A2959 RMK AO2 T01390052
KDUX 251215Z AUTO 26008KT 10SM CLR 13/05 A2959 RMK AO2 T01270050
KDUX 251155Z AUTO 27009KT 10SM CLR 13/05 A2959 RMK AO2 T01250046 10153 20087
KDUX 251135Z AUTO 25009KT 10SM CLR 12/05 A2959 RMK AO2 T01240045
KDUX 251115Z AUTO 25008KT 10SM CLR 10/05 A2960 RMK AO2 T01040046
KDUX 251055Z AUTO 32004KT 10SM CLR 11/05 A2958 RMK AO2 T01080045
KDUX 251035Z AUTO 25006KT 10SM CLR 11/05 A2958 RMK AO2 T01140045
KDUX 251015Z AUTO 24004KT 10SM CLR 11/05 A2958 RMK AO2 T01080045
KDUX 250955Z AUTO 19005KT 10SM CLR 09/05 A2958 RMK AO2 T00920047
KDUX 250935Z AUTO 19008KT 10SM CLR 09/05 A2958 RMK AO2 T00870051
KDUX 250915Z AUTO 16008KT 10SM CLR 10/05 A2958 RMK AO2 T00990050
KDUX 250855Z AUTO 14009KT 10SM CLR 11/05 A2958 RMK AO2 T01100048


Page loaded:  20:54 UTC  |   01:54 PM Pacific  |   02:54 PM Mountain  |   03:54 PM Central  |   04:54 PM Eastern

 

ADVISORIES

FORECASTS

FORECASTS

OBSERVATIONS

USER TOOLS

ABOUT US